Tompkinsville, KY (42167)

5:33 PM CDT on July 24, 2016 (GMT -0500)
Center Point Ky | | Change Station

Elev 740 ft 36.72 °N, 85.51 °W | Updated 13 minutes ago

Clear
Clear
100.8 °F
Feels Like 125 °F
N
1.7
Wind Variable Wind from North

Today
High -- | Low -- °F
--% Chance of Precip.
Yesterday
High -- | Low -- °F
Precip. -- in
Pressure 29.99 in
Visibility 10.0 miles
Clouds Clear
Heat Index 125 °F
Dew Point 81 °F
Humidity 54%
Rainfall 0.00 in
Snow Depth Not available.
5:42 AM 7:55 PM
Waning Gibbous, 72% visible
METAR KGLW 242215Z AUTO 00000KT 10SM CLR 33/23 A2999 RMK AO2 T03270227 PWINO
Pressure 29.99 in
Visibility 10.0 miles
Clouds Clear
Heat Index 125 °F
Dew Point 81 °F
Humidity 54%
Rainfall 0.00 in
Snow Depth Not available.
5:42 AM 7:55 PM
Waning Gibbous, 72% visible
METAR KGLW 242215Z AUTO 00000KT 10SM CLR 33/23 A2999 RMK AO2 T03270227 PWINO

10-Day Weather Forecast

Almanac

Astronomy

Jul. 24, 2016 Rise Set
Actual Time
Civil Twilight
Nautical Twilight
Astronomical Twilight
Moon
Length of Visible Light
Length of Day
Tomorrow will be .
, % of the Moon is Illuminated

Today's Extremes

State Highs State Lows

Community

WunderPhotos

Upload Photos

1,927,205 photos uploaded!

WunderBlog® & News

Nearby

Air Quality

  Air Quality AQ Index Pollutant
Not available.

Snow Depth

Station Depth Elevation

Earthquake Activity

City Distance Mag. Time & Date
Minimum magnitude displayed is 2.5.

Coastal Water Temperatures

Place Temperature

Stations

Nearby Weather Stations

Station Location Temp. Windchill Dew Point Humidity Wind Precip. Elev Updated Type
                   

Watches & Warnings

There are currently no watches in effect.